Mc Cook Ben Nelson Regional Airport
KMCK : now visible

Airfield :











YOU CAN JOIN US ON...

 
LOGIN :

Register | Disclaimer

   EN    FR    IT 

 









Legend :    VFR   Marginal VFR   IFR   Intensive IFR   Very Intensive IFR
Visi :
Ceiling :
>= 8 km
>= 3000ft
5 to 8 km
1000 to 3000 ft
1500m to 5 km
500 to 1000 ft
800 to 1500m
200 to 500 ft
< 800m
< 200 ft
Symbols :   Thunderstorms  Fog  Heavy snow  Heavy precipitations  Wind > 20 kt






- Airport Elevation : 2583 ft


KMCK - Mc Cook Ben Nelson Regional

CURRENT METAR :
  • 192353Z AUTO 11007KT 10SM CLR 12/M01 A2974 RMK AO2 SLP081 T01171011 10189 20117 56006

EXPIRED METARs :
  • 192253Z AUTO 14008KT 10SM CLR 16/M01 A2975 RMK AO2 SLP077 T01611006
  • 192153Z AUTO 16010KT 10SM CLR 19/M01 A2975 RMK AO2 SLP075 T01891006
  • 192053Z AUTO 17012KT 10SM CLR 18/M01 A2976 RMK AO2 SLP078 T01831011 56026

TAF KMCK
Valid from the 20 at 00:00 until the 21 at 00:00 UTC


192332Z 2000/2024 15008KT P6SM BKN250
FM201800 VRB06KT P6SM SCT025 OVC150
FM202345 02017KT 6SM -RA BKN020 OVC060



MET'MAP, your aeronautical weather chart ! - Copyright ORBIFLY December 2007 - Disclaimer

ORBIFLY MET'MAP TEAM :

Programming & Development : Alexandra Zaïnal
Concept & Development : Baudouin d'Aumeries
Co-Development & Prog : Marc-Olivier Méhu
Technical & hardware support : Manuel Goepfert

Contact : metmap@orbifly.com




SOURCES & CREDITS :

   NOAA       Earth
Advisory